Time,TemperatureF,DewpointF,PressureIn,WindDirection,WindDirectionDegrees,WindSpeedMPH,WindSpeedGustMPH,Humidity,HourlyPrecipIn,Conditions,Clouds,dailyrainin,SoftwareType,DateUTC
2013-06-01 00:00:00,69.7,65.3,30.04,East,86,0.0,3.0,86,0.00,,---,0.00,VWS V14.01,2013-06-01 04:00:00,
2013-06-01 00:01:00,68.9,65.8,30.05,ENE,71,0.0,1.0,90,0.00,,---,0.00,VWS V14.01,2013-06-01 04:01:00,
2013-06-01 00:06:00,68.9,65.5,30.04,North,355,1.0,3.0,89,0.00,,---,0.00,VWS V14.01,2013-06-01 04:06:00,
2013-06-01 00:11:00,68.8,65.8,30.04,NNW,340,0.0,3.0,90,0.00,,---,0.00,VWS V14.01,2013-06-01 04:11:00,
2013-06-01 00:16:00,68.7,65.7,30.04,NNW,329,1.0,3.0,90,0.00,,---,0.00,VWS V14.01,2013-06-01 04:16:00,
2013-06-01 00:21:00,68.6,65.6,30.04,ESE,106,0.0,3.0,90,0.00,,---,0.00,VWS V14.01,2013-06-01 04:21:00,
2013-06-01 00:26:00,68.6,65.6,30.04,ESE,106,0.0,3.0,90,0.00,,---,0.00,VWS V14.01,2013-06-01 04:26:00,
2013-06-01 00:30:00,69.4,65.7,30.04,North,11,0.0,6.0,88,0.00,,---,0.00,VWS V14.01,2013-06-01 04:30:00,
2013-06-01 00:31:00,68.5,65.5,30.04,ESE,106,0.0,0.0,90,0.00,,---,0.00,VWS V14.01,2013-06-01 04:31:00,
2013-06-01 00:36:00,68.5,65.5,30.04,ESE,106,0.0,2.0,90,0.00,,---,0.00,VWS V14.01,2013-06-01 04:36:00,
2013-06-01 00:41:00,68.4,65.4,30.04,ESE,106,0.0,2.0,90,0.00,,---,0.00,VWS V14.01,2013-06-01 04:41:00,
2013-06-01 00:46:00,68.3,65.3,30.04,ESE,106,0.0,2.0,90,0.00,,---,0.00,VWS V14.01,2013-06-01 04:46:00,
2013-06-01 00:51:00,68.3,65.3,30.04,NNW,342,0.0,2.0,90,0.00,,---,0.00,VWS V14.01,2013-06-01 04:51:00,
2013-06-01 00:56:00,68.2,65.2,30.04,NW,320,2.0,2.0,90,0.00,,---,0.00,VWS V14.01,2013-06-01 04:56:00,
2013-06-01 01:00:00,68.2,65.2,30.03,NNW,336,0.0,2.0,90,0.00,,---,0.00,VWS V15.00,2013-06-01 05:00:00,
2013-06-01 01:01:00,68.2,65.2,30.04,NNW,336,0.0,1.0,90,0.00,,---,0.00,VWS V14.01,2013-06-01 05:01:00,
2013-06-01 01:06:00,68.2,65.2,30.03,South,175,0.0,1.0,90,0.00,,---,0.00,VWS V14.01,2013-06-01 05:06:00,
2013-06-01 01:11:00,68.2,65.2,30.03,South,169,0.0,1.0,90,0.00,,---,0.00,VWS V14.01,2013-06-01 05:11:00,
2013-06-01 01:16:00,68.1,64.7,30.03,South,177,0.0,1.0,89,0.00,,---,0.00,VWS V14.01,2013-06-01 05:16:00,
2013-06-01 01:21:00,68.0,65.0,30.03,South,177,0.0,1.0,90,0.00,,---,0.00,VWS V14.01,2013-06-01 05:21:00,
2013-06-01 01:26:00,67.8,64.8,30.03,South,177,0.0,1.0,90,0.00,,---,0.00,VWS V14.01,2013-06-01 05:26:00,
2013-06-01 01:30:00,68.6,65.6,30.04,ESE,106,0.0,3.0,90,0.00,,---,0.00,VWS V14.01,2013-06-01 05:30:00,
2013-06-01 01:31:00,67.7,64.7,30.02,South,177,0.0,0.0,90,0.00,,---,0.00,VWS V14.01,2013-06-01 05:31:00,
2013-06-01 01:36:00,67.5,64.5,30.02,South,176,0.0,0.0,90,0.00,,---,0.00,VWS V14.01,2013-06-01 05:36:00,
2013-06-01 01:41:00,67.3,64.3,30.02,South,177,0.0,0.0,90,0.00,,---,0.00,VWS V14.01,2013-06-01 05:41:00,
2013-06-01 01:46:00,67.1,64.1,30.02,SSW,195,0.0,1.0,90,0.00,,---,0.00,VWS V14.01,2013-06-01 05:46:00,
2013-06-01 01:51:00,66.9,63.9,30.02,SSW,195,0.0,1.0,90,0.00,,---,0.00,VWS V14.01,2013-06-01 05:51:00,
2013-06-01 01:56:00,66.7,63.7,30.02,SSW,195,0.0,1.0,90,0.00,,---,0.00,VWS V14.01,2013-06-01 05:56:00,
2013-06-01 02:00:00,68.2,65.2,30.03,NNW,336,0.0,2.0,90,0.00,,---,0.00,VWS V14.01,2013-06-01 06:00:00,
2013-06-01 02:01:00,66.5,63.8,30.02,SSW,195,0.0,0.0,91,0.00,,---,0.00,VWS V14.01,2013-06-01 06:01:00,
2013-06-01 02:06:00,66.2,63.5,30.02,SSW,195,0.0,0.0,91,0.00,,---,0.00,VWS V14.01,2013-06-01 06:06:00,
2013-06-01 02:11:00,66.1,63.4,30.02,SSW,195,0.0,0.0,91,0.00,,---,0.00,VWS V14.01,2013-06-01 06:11:00,
2013-06-01 02:16:00,65.9,63.2,30.02,SSW,195,0.0,1.0,91,0.00,,---,0.00,VWS V14.01,2013-06-01 06:16:00,
2013-06-01 02:21:00,65.8,63.4,30.02,SSW,195,0.0,1.0,92,0.00,,---,0.00,VWS V14.01,2013-06-01 06:21:00,
2013-06-01 02:26:00,65.7,63.3,30.02,SSW,195,0.0,1.0,92,0.00,,---,0.00,VWS V14.01,2013-06-01 06:26:00,
2013-06-01 02:30:00,67.7,64.7,30.02,South,177,0.0,1.0,90,0.00,,---,0.00,VWS V14.01,2013-06-01 06:30:00,
2013-06-01 02:31:00,65.5,63.1,30.02,SSW,195,0.0,0.0,92,0.00,,---,0.00,VWS V14.01,2013-06-01 06:31:00,
2013-06-01 02:36:00,65.4,63.0,30.02,SSW,195,0.0,0.0,92,0.00,,---,0.00,VWS V14.01,2013-06-01 06:36:00,
2013-06-01 02:41:00,65.4,63.3,30.02,SSW,195,0.0,0.0,93,0.00,,---,0.00,VWS V14.01,2013-06-01 06:41:00,
2013-06-01 02:46:00,65.3,63.2,30.02,SSW,195,0.0,0.0,93,0.00,,---,0.00,VWS V14.01,2013-06-01 06:46:00,
2013-06-01 02:51:00,65.2,63.1,30.02,SSW,195,0.0,1.0,93,0.00,,---,0.00,VWS V14.01,2013-06-01 06:51:00,
2013-06-01 02:56:00,65.2,63.1,30.02,SSW,195,0.0,1.0,93,0.00,,---,0.00,VWS V14.01,2013-06-01 06:56:00,
2013-06-01 03:00:00,66.5,63.5,30.02,SSW,195,0.0,1.0,90,0.00,,---,0.00,VWS V14.01,2013-06-01 07:00:00,
2013-06-01 03:01:00,65.2,63.1,30.01,SSW,195,0.0,0.0,93,0.00,,---,0.00,VWS V14.01,2013-06-01 07:01:00,
2013-06-01 03:06:00,65.1,63.0,30.01,South,188,0.0,1.0,93,0.00,,---,0.00,VWS V14.01,2013-06-01 07:06:00,
2013-06-01 03:11:00,65.0,62.9,30.02,South,188,0.0,1.0,93,0.00,,---,0.00,VWS V14.01,2013-06-01 07:11:00,
2013-06-01 03:16:00,65.0,62.9,30.01,South,173,0.0,1.0,93,0.00,,---,0.00,VWS V14.01,2013-06-01 07:16:00,
2013-06-01 03:21:00,65.1,63.3,30.01,SW,220,0.0,2.0,94,0.00,,---,0.00,VWS V14.01,2013-06-01 07:21:00,
2013-06-01 03:26:00,65.1,63.3,30.02,SW,232,0.0,2.0,94,0.00,,---,0.00,VWS V14.01,2013-06-01 07:26:00,
2013-06-01 03:30:00,65.6,63.2,30.02,SSW,195,0.0,1.0,92,0.00,,---,0.00,VWS V14.01,2013-06-01 07:30:00,
2013-06-01 03:31:00,65.1,63.3,30.02,SW,232,0.0,0.0,94,0.00,,---,0.00,VWS V14.01,2013-06-01 07:31:00,
2013-06-01 03:36:00,65.2,63.4,30.01,SE,143,1.0,1.0,94,0.00,,---,0.00,VWS V14.01,2013-06-01 07:36:00,
2013-06-01 03:40:00,65.2,63.4,30.01,North,360,0.0,2.0,94,0.00,,---,0.00,VWS V14.01,2013-06-01 07:40:00,
2013-06-01 03:45:00,65.3,63.5,30.01,NW,309,0.0,2.0,94,0.00,,---,0.00,VWS V14.01,2013-06-01 07:45:00,
2013-06-01 03:50:00,65.3,63.5,30.01,SSE,152,0.0,2.0,94,0.00,,---,0.00,VWS V14.01,2013-06-01 07:50:00,
2013-06-01 03:55:00,65.4,63.6,30.01,SW,220,0.0,2.0,94,0.00,,---,0.00,VWS V14.01,2013-06-01 07:55:00,
2013-06-01 04:00:00,65.4,63.6,30.02,SW,220,0.0,0.0,94,0.00,,---,0.00,VWS V14.01,2013-06-01 08:00:00,
2013-06-01 04:05:00,65.3,63.5,30.02,SW,220,0.0,0.0,94,0.00,,---,0.00,VWS V14.01,2013-06-01 08:05:00,
2013-06-01 04:10:00,65.3,63.5,30.02,SW,220,0.0,2.0,94,0.00,,---,0.00,VWS V14.01,2013-06-01 08:10:00,
2013-06-01 04:15:00,65.2,63.4,30.02,SW,220,0.0,2.0,94,0.00,,---,0.00,VWS V14.01,2013-06-01 08:15:00,
2013-06-01 04:20:00,65.1,63.3,30.02,SW,220,0.0,2.0,94,0.00,,---,0.00,VWS V14.01,2013-06-01 08:20:00,
2013-06-01 04:25:00,65.0,63.2,30.02,SW,220,0.0,2.0,94,0.00,,---,0.00,VWS V14.01,2013-06-01 08:25:00,
2013-06-01 04:30:00,65.0,63.2,30.02,SW,220,0.0,0.0,94,0.00,,---,0.00,VWS V14.01,2013-06-01 08:30:00,
2013-06-01 04:35:00,64.9,63.1,30.02,SW,220,0.0,0.0,94,0.00,,---,0.00,VWS V14.01,2013-06-01 08:35:00,
2013-06-01 04:40:00,64.9,63.4,30.02,SW,220,0.0,0.0,95,0.00,,---,0.00,VWS V14.01,2013-06-01 08:40:00,
2013-06-01 04:45:00,64.9,63.4,30.02,SW,220,0.0,0.0,95,0.00,,---,0.00,VWS V14.01,2013-06-01 08:45:00,
2013-06-01 04:50:00,64.9,63.4,30.02,SW,221,0.0,0.0,95,0.00,,---,0.00,VWS V14.01,2013-06-01 08:50:00,
2013-06-01 04:55:00,64.9,63.4,30.02,SW,220,0.0,0.0,95,0.00,,---,0.00,VWS V14.01,2013-06-01 08:55:00,
2013-06-01 05:00:00,64.9,63.4,30.02,SW,220,0.0,0.0,95,0.00,,---,0.00,VWS V14.01,2013-06-01 09:00:00,
2013-06-01 05:05:00,64.9,63.4,30.02,SW,216,0.0,1.0,95,0.00,,---,0.00,VWS V14.01,2013-06-01 09:05:00,
2013-06-01 05:10:00,64.9,63.4,30.02,SSW,213,0.0,3.0,95,0.00,,---,0.00,VWS V14.01,2013-06-01 09:10:00,
2013-06-01 05:15:00,64.9,63.4,30.02,SSW,213,0.0,3.0,95,0.00,,---,0.00,VWS V14.01,2013-06-01 09:15:00,
2013-06-01 05:20:00,64.8,63.3,30.02,SSW,213,0.0,3.0,95,0.00,,---,0.00,VWS V14.01,2013-06-01 09:20:00,
2013-06-01 05:25:00,64.7,63.2,30.02,SSW,213,0.0,3.0,95,0.00,,---,0.00,VWS V14.01,2013-06-01 09:25:00,
2013-06-01 05:30:00,64.7,63.2,30.03,SW,236,1.0,1.0,95,0.00,,---,0.00,VWS V14.01,2013-06-01 09:30:00,
2013-06-01 05:35:00,64.8,63.3,30.02,SW,236,0.0,1.0,95,0.00,,---,0.00,VWS V14.01,2013-06-01 09:35:00,
2013-06-01 05:40:00,64.9,63.4,30.02,WSW,240,0.0,1.0,95,0.00,,---,0.00,VWS V14.01,2013-06-01 09:40:00,
2013-06-01 05:45:00,64.9,63.4,30.02,WSW,240,0.0,1.0,95,0.00,,---,0.00,VWS V14.01,2013-06-01 09:45:00,
2013-06-01 05:50:00,64.9,63.4,30.02,WSW,240,0.0,1.0,95,0.00,,---,0.00,VWS V14.01,2013-06-01 09:50:00,
2013-06-01 05:55:00,65.0,63.8,30.02,SW,231,0.0,1.0,96,0.00,,---,0.00,VWS V14.01,2013-06-01 09:55:00,
2013-06-01 06:00:00,65.0,63.8,30.02,SW,231,0.0,0.0,96,0.00,,---,0.00,VWS V14.01,2013-06-01 10:00:00,
2013-06-01 06:05:00,65.1,63.9,30.02,SW,227,0.0,2.0,96,0.00,,---,0.00,VWS V14.01,2013-06-01 10:05:00,
2013-06-01 06:10:00,65.2,64.0,30.03,SSW,212,0.0,2.0,96,0.00,,---,0.00,VWS V14.01,2013-06-01 10:10:00,
2013-06-01 06:15:00,65.3,64.1,30.03,SSW,212,0.0,2.0,96,0.00,,---,0.00,VWS V14.01,2013-06-01 10:15:00,
2013-06-01 06:20:00,65.4,64.2,30.03,SW,215,0.0,2.0,96,0.00,,---,0.00,VWS V14.01,2013-06-01 10:20:00,
2013-06-01 06:25:00,65.7,64.5,30.03,SW,215,0.0,2.0,96,0.00,,---,0.00,VWS V14.01,2013-06-01 10:25:00,
2013-06-01 06:30:00,65.9,64.7,30.03,ESE,103,0.0,1.0,96,0.00,,---,0.00,VWS V14.01,2013-06-01 10:30:00,
2013-06-01 06:35:00,66.2,65.0,30.03,ENE,66,0.0,1.0,96,0.00,,---,0.00,VWS V14.01,2013-06-01 10:35:00,
2013-06-01 06:40:00,66.6,65.4,30.03,ENE,66,0.0,1.0,96,0.00,,---,0.00,VWS V14.01,2013-06-01 10:40:00,
2013-06-01 06:45:00,67.1,66.2,30.03,ENE,65,0.0,1.0,97,0.00,,---,0.00,VWS V14.01,2013-06-01 10:45:00,
2013-06-01 06:50:00,67.6,66.4,30.03,ENE,66,0.0,1.0,96,0.00,,---,0.00,VWS V14.01,2013-06-01 10:50:00,
2013-06-01 06:55:00,68.1,66.9,30.03,ENE,66,0.0,1.0,96,0.00,,---,0.00,VWS V14.01,2013-06-01 10:55:00,
2013-06-01 07:00:00,68.7,67.5,30.03,ENE,66,0.0,1.0,96,0.00,,---,0.00,VWS V14.01,2013-06-01 11:00:00,
2013-06-01 07:05:00,69.3,67.8,30.03,ENE,65,0.0,1.0,95,0.00,,---,0.00,VWS V14.01,2013-06-01 11:05:00,
2013-06-01 07:10:00,69.8,68.0,30.03,NNE,21,0.0,3.0,94,0.00,,---,0.00,VWS V14.01,2013-06-01 11:10:00,
2013-06-01 07:15:00,70.4,68.3,30.03,NNE,13,0.0,3.0,93,0.00,,---,0.00,VWS V14.01,2013-06-01 11:15:00,
2013-06-01 07:20:00,71.1,68.7,30.03,NNE,15,1.0,3.0,92,0.00,,---,0.00,VWS V14.01,2013-06-01 11:20:00,
2013-06-01 07:25:00,71.6,68.8,30.03,NNE,28,0.0,3.0,91,0.00,,---,0.00,VWS V14.01,2013-06-01 11:25:00,
2013-06-01 07:30:00,72.3,69.2,30.03,NE,40,0.0,2.0,90,0.00,,---,0.00,VWS V14.01,2013-06-01 11:30:00,
2013-06-01 07:35:00,73.0,69.6,30.03,NE,40,0.0,2.0,89,0.00,,---,0.00,VWS V14.01,2013-06-01 11:35:00,
2013-06-01 07:40:00,73.7,70.3,30.03,NE,40,0.0,2.0,89,0.00,,---,0.00,VWS V14.01,2013-06-01 11:40:00,
2013-06-01 07:45:00,74.5,70.4,30.03,NE,40,0.0,2.0,87,0.00,,---,0.00,VWS V14.01,2013-06-01 11:45:00,
2013-06-01 07:50:00,75.2,70.7,30.03,ENE,74,1.0,2.0,86,0.00,,---,0.00,VWS V14.01,2013-06-01 11:50:00,
2013-06-01 07:55:00,75.7,71.2,30.03,ENE,57,1.0,2.0,86,0.00,,---,0.00,VWS V14.01,2013-06-01 11:55:00,
2013-06-01 08:00:00,76.2,71.4,30.03,ESE,123,2.0,2.0,85,0.00,,---,0.00,VWS V14.01,2013-06-01 12:00:00,
2013-06-01 08:05:00,76.8,71.6,30.03,SSE,167,0.0,2.0,84,0.00,,---,0.00,VWS V14.01,2013-06-01 12:05:00,
2013-06-01 08:10:00,77.3,72.1,30.03,ESE,103,0.0,3.0,84,0.00,,---,0.00,VWS V14.01,2013-06-01 12:10:00,
2013-06-01 08:15:00,77.7,71.8,30.03,East,96,1.0,3.0,82,0.00,,---,0.00,VWS V14.01,2013-06-01 12:15:00,
2013-06-01 08:20:00,78.3,72.4,30.03,East,86,0.0,3.0,82,0.00,,---,0.00,VWS V14.01,2013-06-01 12:20:00,
2013-06-01 08:25:00,78.8,72.8,30.03,East,86,0.0,3.0,82,0.00,,---,0.00,VWS V14.01,2013-06-01 12:25:00,
2013-06-01 08:30:00,79.4,72.7,30.04,East,84,1.0,1.0,80,0.00,,---,0.00,VWS V14.01,2013-06-01 12:30:00,
2013-06-01 08:35:00,79.8,73.1,30.04,NNE,28,1.0,2.0,80,0.00,,---,0.00,VWS V14.01,2013-06-01 12:35:00,
2013-06-01 08:40:00,80.3,72.1,30.04,ESE,113,2.0,3.0,76,0.00,,---,0.00,VWS V14.01,2013-06-01 12:40:00,
2013-06-01 08:45:00,80.7,72.4,30.04,SSW,194,0.0,3.0,76,0.00,,---,0.00,VWS V14.01,2013-06-01 12:45:00,
2013-06-01 08:50:00,81.2,71.7,30.03,WNW,302,1.0,4.0,73,0.00,,---,0.00,VWS V14.01,2013-06-01 12:50:00,
2013-06-01 08:55:00,81.6,71.3,30.03,West,279,1.0,4.0,71,0.00,,---,0.00,VWS V14.01,2013-06-01 12:55:00,
2013-06-01 09:00:00,82.1,72.6,30.03,North,355,1.0,1.0,73,0.00,,---,0.00,VWS V14.01,2013-06-01 13:00:00,
2013-06-01 09:05:00,82.5,72.2,30.03,SE,130,2.0,2.0,71,0.00,,---,0.00,VWS V14.01,2013-06-01 13:05:00,
2013-06-01 09:10:00,82.9,72.9,30.03,WSW,244,2.0,5.0,72,0.00,,---,0.00,VWS V14.01,2013-06-01 13:10:00,
2013-06-01 09:15:00,83.2,72.4,30.03,NE,54,1.0,5.0,70,0.00,,---,0.00,VWS V14.01,2013-06-01 13:15:00,
2013-06-01 09:20:00,83.2,72.0,30.03,West,277,0.0,5.0,69,0.00,,---,0.00,VWS V14.01,2013-06-01 13:20:00,
2013-06-01 09:25:00,83.4,72.2,30.03,West,279,0.0,5.0,69,0.00,,---,0.00,VWS V14.01,2013-06-01 13:25:00,
2013-06-01 09:30:00,83.7,72.5,30.02,NNE,26,1.0,1.0,69,0.00,,---,0.00,VWS V14.01,2013-06-01 13:30:00,
2013-06-01 09:35:00,83.8,72.6,30.02,South,171,0.0,5.0,69,0.00,,---,0.00,VWS V14.01,2013-06-01 13:35:00,
2013-06-01 09:40:00,84.2,72.5,30.02,North,355,2.0,5.0,68,0.00,,---,0.00,VWS V14.01,2013-06-01 13:40:00,
2013-06-01 09:45:00,84.5,73.7,30.03,SW,231,0.0,5.0,70,0.00,,---,0.00,VWS V14.01,2013-06-01 13:45:00,
2013-06-01 09:50:00,84.8,73.5,30.03,ESE,118,0.0,5.0,69,0.00,,---,0.00,VWS V14.01,2013-06-01 13:50:00,
2013-06-01 09:55:00,84.8,71.7,30.02,SSE,153,2.0,5.0,65,0.00,,---,0.00,VWS V14.01,2013-06-01 13:55:00,
2013-06-01 10:00:00,84.8,72.6,30.02,NE,40,0.0,6.0,67,0.00,,---,0.00,VWS V14.01,2013-06-01 14:00:00,
2013-06-01 10:04:00,84.8,72.6,30.02,East,99,1.0,6.0,67,0.00,,---,0.00,VWS V14.01,2013-06-01 14:04:00,
2013-06-01 10:09:00,84.8,72.2,30.02,NNE,22,3.0,7.0,66,0.00,,---,0.00,VWS V14.01,2013-06-01 14:09:00,
2013-06-01 10:14:00,84.8,73.1,30.01,NW,318,1.0,7.0,68,0.00,,---,0.00,VWS V14.01,2013-06-01 14:14:00,
2013-06-01 10:19:00,85.1,72.9,30.01,NNW,345,2.0,7.0,67,0.00,,---,0.00,VWS V14.01,2013-06-01 14:19:00,
2013-06-01 10:24:00,85.4,72.8,30.01,ESE,117,0.0,7.0,66,0.00,,---,0.00,VWS V14.01,2013-06-01 14:24:00,
2013-06-01 10:29:00,85.5,71.9,30.01,South,180,1.0,3.0,64,0.00,,---,0.00,VWS V14.01,2013-06-01 14:29:00,
2013-06-01 10:30:00,83.6,73.2,30.02,West,279,0.0,5.0,71,0.00,,---,0.00,VWS V14.01,2013-06-01 14:30:00,
2013-06-01 10:34:00,85.7,73.0,30.01,South,183,0.0,6.0,66,0.00,,---,0.00,VWS V14.01,2013-06-01 14:34:00,
2013-06-01 10:39:00,86.1,73.9,30.01,NE,36,3.0,6.0,67,0.00,,---,0.00,VWS V14.01,2013-06-01 14:39:00,
2013-06-01 10:44:00,86.2,73.5,30.01,SSE,148,0.0,6.0,66,0.00,,---,0.00,VWS V14.01,2013-06-01 14:44:00,
2013-06-01 10:49:00,86.3,74.1,30.00,NW,325,2.0,6.0,67,0.00,,---,0.00,VWS V14.01,2013-06-01 14:49:00,
2013-06-01 10:54:00,86.3,74.5,30.00,NNE,15,1.0,6.0,68,0.00,,---,0.00,VWS V14.01,2013-06-01 14:54:00,
2013-06-01 10:59:00,86.1,73.9,30.01,ESE,123,2.0,4.0,67,0.00,,---,0.00,VWS V14.01,2013-06-01 14:59:00,
2013-06-01 11:00:00,84.8,72.6,30.02,South,172,6.0,6.0,67,0.00,,---,0.00,VWS V14.01,2013-06-01 15:00:00,
2013-06-01 11:04:00,85.6,72.9,30.01,East,89,1.0,5.0,66,0.00,,---,0.00,VWS V14.01,2013-06-01 15:04:00,
2013-06-01 11:09:00,85.3,74.0,30.01,WNW,286,2.0,8.0,69,0.00,,---,0.00,VWS V14.01,2013-06-01 15:09:00,
2013-06-01 11:14:00,85.1,73.4,30.01,SSE,154,2.0,8.0,68,0.00,,---,0.00,VWS V14.01,2013-06-01 15:14:00,
2013-06-01 11:19:00,84.9,72.7,30.01,SE,137,1.0,8.0,67,0.00,,---,0.00,VWS V14.01,2013-06-01 15:19:00,
2013-06-01 11:24:00,84.9,74.0,30.01,South,184,1.0,11.0,70,0.00,,---,0.00,VWS V14.01,2013-06-01 15:24:00,
2013-06-01 11:29:00,85.2,73.9,30.01,East,91,1.0,1.0,69,0.00,,---,0.00,VWS V14.01,2013-06-01 15:29:00,
2013-06-01 11:30:00,85.5,72.4,30.01,South,180,3.0,7.0,65,0.00,,---,0.00,VWS V14.01,2013-06-01 15:30:00,
2013-06-01 11:34:00,85.3,74.4,30.00,NE,43,3.0,5.0,70,0.00,,---,0.00,VWS V14.01,2013-06-01 15:34:00,
2013-06-01 11:39:00,85.2,73.9,30.00,SE,133,1.0,6.0,69,0.00,,---,0.00,VWS V14.01,2013-06-01 15:39:00,
2013-06-01 11:44:00,85.1,74.2,30.01,ESE,118,2.0,6.0,70,0.00,,---,0.00,VWS V14.01,2013-06-01 15:44:00,
2013-06-01 11:49:00,85.0,73.3,30.01,SW,236,1.0,6.0,68,0.00,,---,0.00,VWS V14.01,2013-06-01 15:49:00,
2013-06-01 11:54:00,84.7,73.8,30.01,NE,55,3.0,6.0,70,0.00,,---,0.00,VWS V14.01,2013-06-01 15:54:00,
2013-06-01 11:59:00,84.7,73.8,30.01,ESE,121,3.0,3.0,70,0.00,,---,0.00,VWS V14.01,2013-06-01 15:59:00,
2013-06-01 12:00:00,86.1,73.9,30.01,SE,135,2.0,6.0,67,0.00,,---,0.00,VWS V14.01,2013-06-01 16:00:00,
2013-06-01 12:04:00,84.6,74.2,30.01,West,261,3.0,4.0,71,0.00,,---,0.00,VWS V14.01,2013-06-01 16:04:00,
2013-06-01 12:09:00,84.6,73.3,30.01,North,5,1.0,4.0,69,0.00,,---,0.00,VWS V14.01,2013-06-01 16:09:00,
2013-06-01 12:14:00,84.6,73.7,30.01,East,93,1.0,7.0,70,0.00,,---,0.00,VWS V14.01,2013-06-01 16:14:00,
2013-06-01 12:19:00,84.5,73.2,30.01,SSE,163,0.0,7.0,69,0.00,,---,0.00,VWS V14.01,2013-06-01 16:19:00,
2013-06-01 12:24:00,84.6,73.3,30.00,SE,130,3.0,7.0,69,0.00,,---,0.00,VWS V14.01,2013-06-01 16:24:00,
2013-06-01 12:29:00,84.6,73.3,30.01,ENE,59,0.0,7.0,69,0.00,,---,0.00,VWS V14.01,2013-06-01 16:29:00,
2013-06-01 12:30:00,85.2,73.9,30.01,ESE,119,1.0,11.0,69,0.00,,---,0.00,VWS V14.01,2013-06-01 16:30:00,
2013-06-01 12:34:00,84.9,74.4,30.01,SSE,165,0.0,4.0,71,0.00,,---,0.00,VWS V14.01,2013-06-01 16:34:00,
2013-06-01 12:39:00,85.1,74.6,30.00,NW,313,4.0,4.0,71,0.00,,---,0.00,VWS V14.01,2013-06-01 16:39:00,
2013-06-01 12:44:00,85.2,74.7,30.00,SE,124,0.0,4.0,71,0.00,,---,0.00,VWS V14.01,2013-06-01 16:44:00,
2013-06-01 12:49:00,85.2,74.7,30.00,ENE,58,0.0,6.0,71,0.00,,---,0.00,VWS V14.01,2013-06-01 16:49:00,
2013-06-01 12:54:00,85.2,73.4,30.00,East,90,2.0,6.0,68,0.00,,---,0.00,VWS V14.01,2013-06-01 16:54:00,
2013-06-01 12:59:00,84.9,73.2,30.00,SSE,168,3.0,6.0,68,0.00,,---,0.00,VWS V14.01,2013-06-01 16:59:00,
2013-06-01 13:00:00,84.7,73.8,30.01,North,355,3.0,6.0,70,0.00,,---,0.00,VWS V14.01,2013-06-01 17:00:00,
2013-06-01 13:04:00,85.0,73.7,29.99,SSE,158,0.0,4.0,69,0.00,,---,0.00,VWS V14.01,2013-06-01 17:04:00,
2013-06-01 13:09:00,85.0,73.3,29.99,South,184,4.0,6.0,68,0.00,,---,0.00,VWS V14.01,2013-06-01 17:09:00,
2013-06-01 13:14:00,84.7,73.4,29.99,West,279,2.0,6.0,69,0.00,,---,0.00,VWS V14.01,2013-06-01 17:14:00,
2013-06-01 13:19:00,84.6,73.3,29.99,NE,46,1.0,6.0,69,0.00,,---,0.00,VWS V14.01,2013-06-01 17:19:00,
2013-06-01 13:24:00,84.6,73.3,29.99,ESE,109,1.0,6.0,69,0.00,,---,0.00,VWS V14.01,2013-06-01 17:24:00,
2013-06-01 13:29:00,84.6,72.9,29.99,East,80,2.0,9.0,68,0.00,,---,0.00,VWS V14.01,2013-06-01 17:29:00,
2013-06-01 13:30:00,84.6,73.3,30.01,ENE,59,0.0,7.0,69,0.00,,---,0.00,VWS V14.01,2013-06-01 17:30:00,
2013-06-01 13:34:00,84.5,73.7,29.99,NNW,336,1.0,6.0,70,0.00,,---,0.00,VWS V14.01,2013-06-01 17:34:00,
2013-06-01 13:39:00,84.4,73.6,29.99,NNW,336,2.0,6.0,70,0.00,,---,0.00,VWS V14.01,2013-06-01 17:39:00,
2013-06-01 13:44:00,84.6,73.7,29.99,East,98,3.0,6.0,70,0.00,,---,0.00,VWS V14.01,2013-06-01 17:44:00,
2013-06-01 13:49:00,84.7,73.0,29.99,NW,318,1.0,6.0,68,0.00,,---,0.00,VWS V14.01,2013-06-01 17:49:00,
2013-06-01 13:54:00,84.4,73.1,29.99,East,90,0.0,6.0,69,0.00,,---,0.00,VWS V14.01,2013-06-01 17:54:00,
2013-06-01 13:59:00,84.1,72.4,29.99,South,183,2.0,6.0,68,0.00,,---,0.00,VWS V14.01,2013-06-01 17:59:00,
2013-06-01 14:00:00,84.9,73.2,30.00,SSE,159,2.0,6.0,68,0.00,,---,0.00,VWS V14.01,2013-06-01 18:00:00,
2013-06-01 14:04:00,83.9,72.7,29.99,NW,322,3.0,5.0,69,0.00,,---,0.00,VWS V14.01,2013-06-01 18:04:00,
2013-06-01 14:09:00,83.8,73.0,29.99,ESE,104,2.0,6.0,70,0.00,,---,0.00,VWS V14.01,2013-06-01 18:09:00,
2013-06-01 14:14:00,83.6,72.4,29.99,West,259,2.0,9.0,69,0.00,,---,0.00,VWS V14.01,2013-06-01 18:14:00,
2013-06-01 14:19:00,83.2,71.6,29.99,ENE,76,2.0,9.0,68,0.00,,---,0.00,VWS V14.01,2013-06-01 18:19:00,
2013-06-01 14:24:00,82.8,71.6,29.98,WSW,246,2.0,9.0,69,0.00,,---,0.00,VWS V14.01,2013-06-01 18:24:00,
2013-06-01 14:29:00,82.5,71.3,29.98,NNE,22,0.0,9.0,69,0.00,,---,0.00,VWS V14.01,2013-06-01 18:29:00,
2013-06-01 14:30:00,84.6,72.9,29.99,NE,45,1.0,9.0,68,0.00,,---,0.00,VWS V14.01,2013-06-01 18:30:00,
2013-06-01 14:34:00,82.5,71.3,29.98,East,92,1.0,8.0,69,0.00,,---,0.00,VWS V14.01,2013-06-01 18:34:00,
2013-06-01 14:39:00,82.2,70.6,29.98,NNE,13,3.0,8.0,68,0.00,,---,0.00,VWS V14.01,2013-06-01 18:39:00,
2013-06-01 14:44:00,82.0,71.3,29.97,NNE,19,4.0,8.0,70,0.00,,---,0.00,VWS V14.01,2013-06-01 18:44:00,
2013-06-01 14:49:00,81.7,71.4,29.97,NE,34,2.0,10.0,71,0.00,,---,0.00,VWS V14.01,2013-06-01 18:49:00,
2013-06-01 14:54:00,81.5,70.8,29.97,NE,41,0.0,10.0,70,0.00,,---,0.00,VWS V14.01,2013-06-01 18:54:00,
2013-06-01 14:59:00,81.5,70.8,29.97,SW,217,4.0,10.0,70,0.00,,---,0.00,VWS V14.01,2013-06-01 18:59:00,
2013-06-01 15:00:00,84.1,72.4,29.99,ESE,105,1.0,6.0,68,0.00,,---,0.00,VWS V14.01,2013-06-01 19:00:00,
2013-06-01 15:04:00,81.1,71.2,29.97,NNW,338,1.0,8.0,72,0.00,,---,0.00,VWS V14.01,2013-06-01 19:04:00,
2013-06-01 15:09:00,80.9,70.6,29.96,NNW,333,3.0,8.0,71,0.00,,---,0.00,VWS V14.01,2013-06-01 19:09:00,
2013-06-01 15:14:00,80.5,70.7,29.97,WSW,243,3.0,8.0,72,0.00,,---,0.00,VWS V14.01,2013-06-01 19:14:00,
2013-06-01 15:19:00,80.3,70.9,29.96,NE,53,2.0,8.0,73,0.00,,---,0.00,VWS V14.01,2013-06-01 19:19:00,
2013-06-01 15:24:00,80.2,70.8,29.96,NE,40,3.0,8.0,73,0.00,,---,0.00,VWS V14.01,2013-06-01 19:24:00,
2013-06-01 15:29:00,80.1,70.7,29.96,East,84,3.0,9.0,73,0.00,,---,0.00,VWS V14.01,2013-06-01 19:29:00,
2013-06-01 15:30:00,82.5,71.3,29.98,North,10,1.0,9.0,69,0.00,,---,0.00,VWS V14.01,2013-06-01 19:30:00,
2013-06-01 15:34:00,80.0,70.6,29.96,NNE,21,2.0,6.0,73,0.00,,---,0.00,VWS V14.01,2013-06-01 19:34:00,
2013-06-01 15:39:00,80.3,71.3,29.96,NE,46,1.0,6.0,74,0.00,,---,0.00,VWS V14.01,2013-06-01 19:39:00,
2013-06-01 15:44:00,80.3,70.5,29.96,South,182,1.0,7.0,72,0.00,,---,0.00,VWS V14.01,2013-06-01 19:44:00,
2013-06-01 15:49:00,80.4,71.0,29.96,North,11,6.0,7.0,73,0.00,,---,0.00,VWS V14.01,2013-06-01 19:49:00,
2013-06-01 15:54:00,80.7,71.7,29.96,NW,326,0.0,7.0,74,0.00,,---,0.00,VWS V14.01,2013-06-01 19:54:00,
2013-06-01 15:59:00,81.0,71.1,29.96,ENE,66,3.0,7.0,72,0.00,,---,0.00,VWS V14.01,2013-06-01 19:59:00,
2013-06-01 16:00:00,81.5,70.8,29.97,NE,36,1.0,10.0,70,0.00,,---,0.00,VWS V14.01,2013-06-01 20:00:00,
2013-06-01 16:04:00,81.1,70.8,29.95,East,80,3.0,7.0,71,0.00,,---,0.00,VWS V14.01,2013-06-01 20:04:00,
2013-06-01 16:09:00,80.9,70.6,29.96,NNW,330,2.0,7.0,71,0.00,,---,0.00,VWS V14.01,2013-06-01 20:09:00,
2013-06-01 16:14:00,81.1,71.2,29.96,NNE,30,1.0,7.0,72,0.00,,---,0.00,VWS V14.01,2013-06-01 20:14:00,
2013-06-01 16:19:00,81.2,71.3,29.95,NNW,333,2.0,7.0,72,0.00,,---,0.00,VWS V14.01,2013-06-01 20:19:00,
2013-06-01 16:24:00,80.8,70.5,29.95,ENE,72,1.0,7.0,71,0.00,,---,0.00,VWS V14.01,2013-06-01 20:24:00,
2013-06-01 16:29:00,80.7,70.4,29.95,ENE,78,2.0,7.0,71,0.00,,---,0.00,VWS V14.01,2013-06-01 20:29:00,
2013-06-01 16:30:00,80.0,70.2,29.96,NNE,17,0.0,9.0,72,0.00,,---,0.00,VWS V14.01,2013-06-01 20:30:00,
2013-06-01 16:34:00,80.6,70.8,29.95,North,355,4.0,9.0,72,0.00,,---,0.00,VWS V14.01,2013-06-01 20:34:00,
2013-06-01 16:39:00,80.3,70.1,29.95,East,94,3.0,9.0,71,0.00,,---,0.00,VWS V14.01,2013-06-01 20:39:00,
2013-06-01 16:44:00,80.0,70.2,29.95,East,96,0.0,9.0,72,0.00,,---,0.00,VWS V14.01,2013-06-01 20:44:00,
2013-06-01 16:49:00,79.9,70.5,29.95,SSW,196,2.0,9.0,73,0.00,,---,0.00,VWS V14.01,2013-06-01 20:49:00,
2013-06-01 16:54:00,79.6,69.8,29.95,East,88,1.0,9.0,72,0.00,,---,0.00,VWS V14.01,2013-06-01 20:54:00,
2013-06-01 16:59:00,79.3,69.9,29.95,ENE,67,3.0,9.0,73,0.00,,---,0.00,VWS V14.01,2013-06-01 20:59:00,
2013-06-01 17:00:00,81.0,71.1,29.96,SSW,211,2.0,7.0,72,0.00,,---,0.00,VWS V14.01,2013-06-01 21:00:00,
2013-06-01 17:04:00,79.2,70.2,29.95,ENE,59,3.0,6.0,74,0.00,,---,0.00,VWS V14.01,2013-06-01 21:04:00,
2013-06-01 17:09:00,79.0,70.0,29.95,ESE,123,0.0,6.0,74,0.00,,---,0.00,VWS V14.01,2013-06-01 21:09:00,
2013-06-01 17:14:00,78.8,70.2,29.95,WNW,287,0.0,6.0,75,0.00,,---,0.00,VWS V14.01,2013-06-01 21:14:00,
2013-06-01 17:19:00,78.7,69.7,29.95,SSE,165,2.0,7.0,74,0.00,,---,0.00,VWS V14.01,2013-06-01 21:19:00,
2013-06-01 17:24:00,78.4,69.8,29.95,NNW,327,0.0,7.0,75,0.00,,---,0.00,VWS V14.01,2013-06-01 21:24:00,
2013-06-01 17:29:00,78.3,69.3,29.95,ESE,104,2.0,7.0,74,0.00,,---,0.00,VWS V14.01,2013-06-01 21:29:00,
2013-06-01 17:30:00,80.7,70.4,29.95,NNE,13,1.0,7.0,71,0.00,,---,0.00,VWS V14.01,2013-06-01 21:30:00,
2013-06-01 17:34:00,78.1,69.5,29.94,NE,48,2.0,7.0,75,0.00,,---,0.00,VWS V14.01,2013-06-01 21:34:00,
2013-06-01 17:39:00,77.9,69.7,29.94,NNE,28,1.0,7.0,76,0.00,,---,0.00,VWS V14.01,2013-06-01 21:39:00,
2013-06-01 17:44:00,77.7,69.5,29.94,West,266,4.0,7.0,76,0.00,,---,0.00,VWS V14.01,2013-06-01 21:44:00,
2013-06-01 17:49:00,77.6,69.4,29.94,South,169,0.0,7.0,76,0.00,,---,0.00,VWS V14.01,2013-06-01 21:49:00,
2013-06-01 17:54:00,77.5,69.3,29.94,NNE,26,0.0,7.0,76,0.00,,---,0.00,VWS V14.01,2013-06-01 21:54:00,
2013-06-01 17:59:00,77.2,69.4,29.94,ENE,58,2.0,7.0,77,0.00,,---,0.00,VWS V14.01,2013-06-01 21:59:00,
2013-06-01 18:00:00,79.3,69.9,29.95,ENE,64,1.0,9.0,73,0.00,,---,0.00,VWS V14.01,2013-06-01 22:00:00,
2013-06-01 18:04:00,76.9,69.2,29.94,NW,314,2.0,3.0,77,0.00,,---,0.00,VWS V14.01,2013-06-01 22:04:00,
2013-06-01 18:09:00,76.8,69.4,29.93,WNW,291,1.0,5.0,78,0.00,,---,0.00,VWS V14.01,2013-06-01 22:09:00,
2013-06-01 18:14:00,76.7,69.3,29.94,North,349,3.0,6.0,78,0.00,,---,0.00,VWS V14.01,2013-06-01 22:14:00,
2013-06-01 18:19:00,76.5,69.1,29.94,NNW,333,1.0,6.0,78,0.00,,---,0.00,VWS V14.01,2013-06-01 22:19:00,
2013-06-01 18:24:00,76.3,68.9,29.94,SE,126,2.0,6.0,78,0.00,,---,0.00,VWS V14.01,2013-06-01 22:24:00,
2013-06-01 18:29:00,76.0,68.7,29.94,NNE,18,0.0,6.0,78,0.00,,---,0.00,VWS V14.01,2013-06-01 22:29:00,
2013-06-01 18:30:00,78.3,69.3,29.95,ESE,104,0.0,7.0,74,0.00,,---,0.00,VWS V14.01,2013-06-01 22:30:00,
2013-06-01 18:34:00,75.9,68.9,29.93,NW,305,3.0,5.0,79,0.00,,---,0.00,VWS V14.01,2013-06-01 22:34:00,
2013-06-01 18:39:00,75.8,68.8,29.93,North,355,2.0,6.0,79,0.00,,---,0.00,VWS V14.01,2013-06-01 22:39:00,
2013-06-01 19:00:00,77.1,69.3,29.94,ENE,57,1.0,7.0,77,0.00,,---,0.00,VWS V14.01,2013-06-01 23:00:00,
2013-06-01 19:30:00,76.0,68.7,29.94,ENE,67,1.0,6.0,78,0.00,,---,0.00,VWS V14.01,2013-06-01 23:30:00,
2013-06-01 20:00:00,75.2,68.6,29.93,NNW,343,4.0,7.0,80,0.00,,---,0.00,VWS V14.01,2013-06-02 00:00:00,
2013-06-01 20:30:00,73.6,67.8,29.93,ESE,103,0.0,9.0,82,0.00,,---,0.00,VWS V14.01,2013-06-02 00:30:00,
2013-06-01 21:00:00,72.9,67.8,29.94,WSW,253,2.0,7.0,84,0.00,,---,0.00,VWS V14.01,2013-06-02 01:00:00,
2013-06-01 21:30:00,71.6,66.9,29.94,NNE,30,2.0,5.0,85,0.00,,---,0.00,VWS V14.01,2013-06-02 01:30:00,
2013-06-01 22:00:00,70.8,66.4,29.94,NE,50,0.0,4.0,86,0.00,,---,0.00,VWS V14.01,2013-06-02 02:00:00,
2013-06-01 22:30:00,69.7,65.7,29.95,East,94,1.0,5.0,87,0.00,,---,0.00,VWS V14.01,2013-06-02 02:30:00,
2013-06-01 23:00:00,68.5,64.8,29.95,ESE,106,0.0,4.0,88,0.00,,---,0.00,VWS V14.01,2013-06-02 03:00:00,
2013-06-01 23:30:00,68.1,65.1,29.95,SW,232,3.0,4.0,90,0.00,,---,0.00,VWS V14.01,2013-06-02 03:30:00,